sensor_id;sensor_type;location;lat;lon;timestamp;pressure;altitude;pressure_sealevel;temperature;humidity
42603;BME280;28233;55.748;48.752;2023-04-24T00:01:35;99364.53;;;11.18;36.13
42603;BME280;28233;55.748;48.752;2023-04-24T00:03:39;99361.66;;;11.15;36.18
42603;BME280;28233;55.748;48.752;2023-04-24T00:05:42;99371.69;;;11.11;36.04
42603;BME280;28233;55.748;48.752;2023-04-24T00:07:45;99366.50;;;11.09;35.92
42603;BME280;28233;55.748;48.752;2023-04-24T00:09:47;99360.50;;;11.07;36.33
42603;BME280;28233;55.748;48.752;2023-04-24T00:11:50;99368.44;;;11.09;36.40
42603;BME280;28233;55.748;48.752;2023-04-24T00:13:52;99372.34;;;11.08;36.03
42603;BME280;28233;55.748;48.752;2023-04-24T00:15:56;99368.75;;;11.07;35.95
42603;BME280;28233;55.748;48.752;2023-04-24T00:17:58;99371.50;;;11.07;36.30
42603;BME280;28233;55.748;48.752;2023-04-24T00:20:04;99378.16;;;11.06;36.21
42603;BME280;28233;55.748;48.752;2023-04-24T00:22:09;99373.31;;;11.03;36.41
42603;BME280;28233;55.748;48.752;2023-04-24T00:24:13;99380.44;;;11.04;36.27
42603;BME280;28233;55.748;48.752;2023-04-24T00:26:15;99376.41;;;11.02;36.15
42603;BME280;28233;55.748;48.752;2023-04-24T00:28:18;99371.22;;;11.00;36.49
42603;BME280;28233;55.748;48.752;2023-04-24T00:30:20;99374.31;;;10.98;36.48
42603;BME280;28233;55.748;48.752;2023-04-24T00:32:23;99369.13;;;10.97;36.20
42603;BME280;28233;55.748;48.752;2023-04-24T00:34:26;99376.91;;;10.95;36.23
42603;BME280;28233;55.748;48.752;2023-04-24T00:36:29;99374.16;;;10.95;36.33
42603;BME280;28233;55.748;48.752;2023-04-24T00:38:32;99376.09;;;10.94;36.37
42603;BME280;28233;55.748;48.752;2023-04-24T00:40:35;99377.69;;;10.95;36.46
42603;BME280;28233;55.748;48.752;2023-04-24T00:42:39;99377.69;;;10.95;36.11
42603;BME280;28233;55.748;48.752;2023-04-24T00:44:42;99376.09;;;10.94;36.18
42603;BME280;28233;55.748;48.752;2023-04-24T00:46:46;99374.94;;;10.95;36.38
42603;BME280;28233;55.748;48.752;2023-04-24T00:48:50;99370.91;;;10.93;36.11
42603;BME280;28233;55.748;48.752;2023-04-24T00:50:52;99382.06;;;10.96;36.46
42603;BME280;28233;55.748;48.752;2023-04-24T00:52:55;99377.69;;;10.95;36.52
42603;BME280;28233;55.748;48.752;2023-04-24T00:54:58;99382.41;;;10.95;36.42
42603;BME280;28233;55.748;48.752;2023-04-24T00:57:02;99381.91;;;10.93;36.20
42603;BME280;28233;55.748;48.752;2023-04-24T00:59:06;99385.00;;;10.91;36.24
42603;BME280;28233;55.748;48.752;2023-04-24T01:01:10;99377.88;;;10.90;36.46
42603;BME280;28233;55.748;48.752;2023-04-24T01:03:13;99379.81;;;10.90;36.42
42603;BME280;28233;55.748;48.752;2023-04-24T01:05:17;99381.44;;;10.91;36.56
42603;BME280;28233;55.748;48.752;2023-04-24T01:07:20;99386.13;;;10.90;36.41
42603;BME280;28233;55.748;48.752;2023-04-24T01:09:23;99380.94;;;10.89;36.39
42603;BME280;28233;55.748;48.752;2023-04-24T01:11:27;99385.00;;;10.91;36.09
42603;BME280;28233;55.748;48.752;2023-04-24T01:13:31;99386.28;;;10.94;36.23
42603;BME280;28233;55.748;48.752;2023-04-24T01:15:35;99381.91;;;10.93;36.43
42603;BME280;28233;55.748;48.752;2023-04-24T01:17:37;99379.50;;;10.91;36.50
42603;BME280;28233;55.748;48.752;2023-04-24T01:19:41;99382.25;;;10.91;36.32
42603;BME280;28233;55.748;48.752;2023-04-24T01:21:47;99382.56;;;10.90;36.13
42603;BME280;28233;55.748;48.752;2023-04-24T01:23:53;99384.03;;;10.87;36.18
42603;BME280;28233;55.748;48.752;2023-04-24T01:25:56;99383.25;;;10.87;36.54
42603;BME280;28233;55.748;48.752;2023-04-24T01:27:59;99386.78;;;10.87;36.28
42603;BME280;28233;55.748;48.752;2023-04-24T01:30:02;99387.09;;;10.86;36.55
42603;BME280;28233;55.748;48.752;2023-04-24T01:32:07;99385.81;;;10.83;36.36
42603;BME280;28233;55.748;48.752;2023-04-24T01:34:10;99388.88;;;10.82;36.32
42603;BME280;28233;55.748;48.752;2023-04-24T01:36:13;99391.31;;;10.83;36.37
42603;BME280;28233;55.748;48.752;2023-04-24T01:38:16;99388.25;;;10.85;36.43
42603;BME280;28233;55.748;48.752;2023-04-24T01:40:19;99386.00;;;10.87;36.17
42603;BME280;28233;55.748;48.752;2023-04-24T01:42:21;99387.28;;;10.89;36.44
42603;BME280;28233;55.748;48.752;2023-04-24T01:44:25;99384.53;;;10.89;36.17
42603;BME280;28233;55.748;48.752;2023-04-24T01:46:28;99389.19;;;10.89;36.02
42603;BME280;28233;55.748;48.752;2023-04-24T01:48:33;99397.13;;;10.90;36.24
42603;BME280;28233;55.748;48.752;2023-04-24T01:50:36;99393.25;;;10.91;36.47
42603;BME280;28233;55.748;48.752;2023-04-24T01:52:38;99393.72;;;10.93;36.45
42603;BME280;28233;55.748;48.752;2023-04-24T01:54:42;99390.97;;;10.93;36.54
42603;BME280;28233;55.748;48.752;2023-04-24T01:56:45;99398.22;;;10.98;36.25
42603;BME280;28233;55.748;48.752;2023-04-24T01:58:50;99393.22;;;11.00;36.19
42603;BME280;28233;55.748;48.752;2023-04-24T02:00:56;99392.09;;;11.01;36.17
42603;BME280;28233;55.748;48.752;2023-04-24T02:02:59;99392.22;;;11.05;36.22
42603;BME280;28233;55.748;48.752;2023-04-24T02:05:06;99400.97;;;11.07;36.43
42603;BME280;28233;55.748;48.752;2023-04-24T02:07:09;99399.19;;;11.11;36.05
42603;BME280;28233;55.748;48.752;2023-04-24T02:09:12;99404.00;;;11.14;36.23
42603;BME280;28233;55.748;48.752;2023-04-24T02:11:15;99396.25;;;11.16;36.21
42603;BME280;28233;55.748;48.752;2023-04-24T02:13:17;99401.56;;;11.21;36.14
42603;BME280;28233;55.748;48.752;2023-04-24T02:15:20;99406.44;;;11.24;35.93
42603;BME280;28233;55.748;48.752;2023-04-24T02:17:23;99401.84;;;11.28;36.01
42603;BME280;28233;55.748;48.752;2023-04-24T02:19:26;99405.09;;;11.30;36.27
42603;BME280;28233;55.748;48.752;2023-04-24T02:21:28;99397.81;;;11.34;36.03
42603;BME280;28233;55.748;48.752;2023-04-24T02:23:33;99405.38;;;11.37;35.97
42603;BME280;28233;55.748;48.752;2023-04-24T02:25:35;99401.97;;;11.40;35.59
42603;BME280;28233;55.748;48.752;2023-04-24T02:27:38;99400.53;;;11.43;35.67
42603;BME280;28233;55.748;48.752;2023-04-24T02:29:41;99408.59;;;11.48;35.99
42603;BME280;28233;55.748;48.752;2023-04-24T02:31:44;99404.00;;;11.52;35.41
42603;BME280;28233;55.748;48.752;2023-04-24T02:33:47;99412.91;;;11.58;35.33
42603;BME280;28233;55.748;48.752;2023-04-24T02:35:50;99411.91;;;11.62;35.50
42603;BME280;28233;55.748;48.752;2023-04-24T02:37:52;99416.44;;;11.67;35.42
42603;BME280;28233;55.748;48.752;2023-04-24T02:39:55;99415.75;;;11.70;35.50
42603;BME280;28233;55.748;48.752;2023-04-24T02:41:57;99422.69;;;11.76;35.34
42603;BME280;28233;55.748;48.752;2023-04-24T02:44:00;99421.69;;;11.81;35.17
42603;BME280;28233;55.748;48.752;2023-04-24T02:46:03;99431.72;;;11.85;34.97
42603;BME280;28233;55.748;48.752;2023-04-24T02:48:06;99423.63;;;11.89;35.14
42603;BME280;28233;55.748;48.752;2023-04-24T02:50:08;99428.94;;;11.94;35.29
42603;BME280;28233;55.748;48.752;2023-04-24T02:52:11;99428.75;;;11.99;35.10
42603;BME280;28233;55.748;48.752;2023-04-24T02:54:14;99434.38;;;12.03;34.69
42603;BME280;28233;55.748;48.752;2023-04-24T02:56:16;99441.19;;;12.05;35.20
42603;BME280;28233;55.748;48.752;2023-04-24T02:58:19;99450.88;;;12.12;34.74
42603;BME280;28233;55.748;48.752;2023-04-24T03:00:22;99445.47;;;12.15;34.83
42603;BME280;28233;55.748;48.752;2023-04-24T03:02:26;99451.47;;;12.17;34.59
42603;BME280;28233;55.748;48.752;2023-04-24T03:04:29;99451.28;;;12.22;35.11
42603;BME280;28233;55.748;48.752;2023-04-24T03:06:32;99454.50;;;12.24;34.99
42603;BME280;28233;55.748;48.752;2023-04-24T03:08:35;99457.72;;;12.26;34.77
42603;BME280;28233;55.748;48.752;2023-04-24T03:10:38;99459.38;;;12.27;34.60
42603;BME280;28233;55.748;48.752;2023-04-24T03:12:40;99456.13;;;12.25;34.67
42603;BME280;28233;55.748;48.752;2023-04-24T03:14:43;99453.50;;;12.29;34.76
42603;BME280;28233;55.748;48.752;2023-04-24T03:16:46;99461.22;;;12.36;34.97
42603;BME280;28233;55.748;48.752;2023-04-24T03:18:49;99469.97;;;12.38;34.90
42603;BME280;28233;55.748;48.752;2023-04-24T03:20:51;99469.66;;;12.39;34.43
42603;BME280;28233;55.748;48.752;2023-04-24T03:22:54;99469.28;;;12.41;34.81
42603;BME280;28233;55.748;48.752;2023-04-24T03:24:57;99463.59;;;12.46;34.74
42603;BME280;28233;55.748;48.752;2023-04-24T03:26:59;99464.84;;;12.48;34.94
42603;BME280;28233;55.748;48.752;2023-04-24T03:29:02;99469.72;;;12.52;34.69
42603;BME280;28233;55.748;48.752;2023-04-24T03:31:05;99475.34;;;12.55;34.50
42603;BME280;28233;55.748;48.752;2023-04-24T03:33:08;99467.22;;;12.59;35.01
42603;BME280;28233;55.748;48.752;2023-04-24T03:35:11;99471.72;;;12.63;34.93
42603;BME280;28233;55.748;48.752;2023-04-24T03:37:14;99474.59;;;12.67;34.58
42603;BME280;28233;55.748;48.752;2023-04-24T03:39:16;99476.03;;;12.73;34.83
42603;BME280;28233;55.748;48.752;2023-04-24T03:41:19;99477.78;;;12.78;34.51
42603;BME280;28233;55.748;48.752;2023-04-24T03:43:21;99487.78;;;12.82;34.56
42603;BME280;28233;55.748;48.752;2023-04-24T03:45:24;99487.56;;;12.87;34.34
42603;BME280;28233;55.748;48.752;2023-04-24T03:47:27;99475.22;;;12.94;34.67
42603;BME280;28233;55.748;48.752;2023-04-24T03:49:29;99484.06;;;12.99;34.50
42603;BME280;28233;55.748;48.752;2023-04-24T03:51:32;99484.31;;;13.06;34.16
42603;BME280;28233;55.748;48.752;2023-04-24T03:53:35;99479.84;;;13.14;34.44
42603;BME280;28233;55.748;48.752;2023-04-24T03:55:37;99492.63;;;13.19;33.93
42603;BME280;28233;55.748;48.752;2023-04-24T03:57:40;99484.59;;;13.26;33.83
42603;BME280;28233;55.748;48.752;2023-04-24T03:59:43;99486.03;;;13.32;34.18
42603;BME280;28233;55.748;48.752;2023-04-24T04:01:46;99489.84;;;13.40;34.25
42603;BME280;28233;55.748;48.752;2023-04-24T04:03:49;99494.34;;;13.44;34.15
42603;BME280;28233;55.748;48.752;2023-04-24T04:05:52;99493.47;;;13.52;33.85
42603;BME280;28233;55.748;48.752;2023-04-24T04:07:55;99489.69;;;13.57;33.83
42603;BME280;28233;55.748;48.752;2023-04-24T04:09:58;99492.69;;;13.64;33.78
42603;BME280;28233;55.748;48.752;2023-04-24T04:12:00;99503.97;;;13.71;33.83
42603;BME280;28233;55.748;48.752;2023-04-24T04:14:03;99498.69;;;13.79;33.56
42603;BME280;28233;55.748;48.752;2023-04-24T04:16:06;99505.94;;;13.83;33.23
42603;BME280;28233;55.748;48.752;2023-04-24T04:18:09;99501.44;;;13.91;32.95
42603;BME280;28233;55.748;48.752;2023-04-24T04:20:12;99512.72;;;13.98;32.96
42603;BME280;28233;55.748;48.752;2023-04-24T04:22:15;99503.53;;;14.06;33.12
42603;BME280;28233;55.748;48.752;2023-04-24T04:24:17;99512.03;;;14.13;32.74
42603;BME280;28233;55.748;48.752;2023-04-24T04:26:20;99514.22;;;14.20;32.64
42603;BME280;28233;55.748;48.752;2023-04-24T04:28:23;99515.25;;;14.28;32.69
42603;BME280;28233;55.748;48.752;2023-04-24T04:30:27;99521.81;;;14.35;31.99
42603;BME280;28233;55.748;48.752;2023-04-24T04:32:31;99513.75;;;14.43;32.46
42603;BME280;28233;55.748;48.752;2023-04-24T04:34:35;99516.72;;;14.50;32.08
42603;BME280;28233;55.748;48.752;2023-04-24T04:36:40;99522.16;;;14.58;32.37
42603;BME280;28233;55.748;48.752;2023-04-24T04:38:43;99519.25;;;14.67;32.29
42603;BME280;28233;55.748;48.752;2023-04-24T04:40:46;99527.75;;;14.74;31.63
42603;BME280;28233;55.748;48.752;2023-04-24T04:42:49;99530.75;;;14.82;31.39
42603;BME280;28233;55.748;48.752;2023-04-24T04:44:55;99526.56;;;14.88;31.59
42603;BME280;28233;55.748;48.752;2023-04-24T04:46:59;99524.00;;;14.95;31.84
42603;BME280;28233;55.748;48.752;2023-04-24T04:49:02;99538.41;;;15.00;31.45
42603;BME280;28233;55.748;48.752;2023-04-24T04:51:05;99529.50;;;15.07;31.70
42603;BME280;28233;55.748;48.752;2023-04-24T04:53:08;99536.53;;;15.17;31.40
42603;BME280;28233;55.748;48.752;2023-04-24T04:55:11;99536.59;;;15.20;31.56
42603;BME280;28233;55.748;48.752;2023-04-24T04:57:15;99539.56;;;15.28;31.54
42603;BME280;28233;55.748;48.752;2023-04-24T04:59:18;99538.84;;;15.31;31.58
42603;BME280;28233;55.748;48.752;2023-04-24T05:01:20;99550.59;;;15.40;31.73
42603;BME280;28233;55.748;48.752;2023-04-24T05:03:25;99542.03;;;15.45;31.85
42603;BME280;28233;55.748;48.752;2023-04-24T05:05:29;99555.38;;;15.55;31.53
42603;BME280;28233;55.748;48.752;2023-04-24T05:07:32;99542.50;;;15.63;31.65
42603;BME280;28233;55.748;48.752;2023-04-24T05:09:34;99544.34;;;15.71;31.67
42603;BME280;28233;55.748;48.752;2023-04-24T05:11:37;99549.25;;;15.78;31.08
42603;BME280;28233;55.748;48.752;2023-04-24T05:13:40;99545.53;;;15.86;30.91
42603;BME280;28233;55.748;48.752;2023-04-24T05:15:42;99547.22;;;15.91;30.80
42603;BME280;28233;55.748;48.752;2023-04-24T05:17:45;99549.00;;;15.99;30.66
42603;BME280;28233;55.748;48.752;2023-04-24T05:19:48;99552.41;;;16.08;30.45
42603;BME280;28233;55.748;48.752;2023-04-24T05:21:51;99551.78;;;16.15;30.33
42603;BME280;28233;55.748;48.752;2023-04-24T05:23:53;99552.75;;;16.22;30.16
42603;BME280;28233;55.748;48.752;2023-04-24T05:25:56;99552.50;;;16.27;30.17
42603;BME280;28233;55.748;48.752;2023-04-24T05:27:59;99558.09;;;16.31;30.13
42603;BME280;28233;55.748;48.752;2023-04-24T05:30:02;99545.94;;;16.36;30.59
42603;BME280;28233;55.748;48.752;2023-04-24T05:32:05;99554.44;;;16.43;30.22
42603;BME280;28233;55.748;48.752;2023-04-24T05:34:08;99553.34;;;16.47;30.27
42603;BME280;28233;55.748;48.752;2023-04-24T05:36:11;99556.28;;;16.55;30.36
42603;BME280;28233;55.748;48.752;2023-04-24T05:38:15;99550.09;;;16.61;30.20
42603;BME280;28233;55.748;48.752;2023-04-24T05:40:21;99555.81;;;16.68;29.86
42603;BME280;28233;55.748;48.752;2023-04-24T05:42:24;99559.91;;;16.75;30.02
42603;BME280;28233;55.748;48.752;2023-04-24T05:44:27;99554.13;;;16.80;29.85
42603;BME280;28233;55.748;48.752;2023-04-24T05:46:30;99551.50;;;16.87;30.23
42603;BME280;28233;55.748;48.752;2023-04-24T05:48:33;99567.50;;;16.94;29.52
42603;BME280;28233;55.748;48.752;2023-04-24T05:50:35;99560.47;;;17.00;29.55
42603;BME280;28233;55.748;48.752;2023-04-24T05:52:39;99565.47;;;17.10;29.85
42603;BME280;28233;55.748;48.752;2023-04-24T05:54:42;99560.50;;;17.19;29.97
42603;BME280;28233;55.748;48.752;2023-04-24T05:56:45;99562.69;;;17.29;29.74
42603;BME280;28233;55.748;48.752;2023-04-24T05:58:49;99565.59;;;17.37;29.78
42603;BME280;28233;55.748;48.752;2023-04-24T06:00:52;99566.97;;;17.46;29.93
42603;BME280;28233;55.748;48.752;2023-04-24T06:02:55;99565.56;;;17.56;29.66
42603;BME280;28233;55.748;48.752;2023-04-24T06:04:59;99570.13;;;17.64;29.86
42603;BME280;28233;55.748;48.752;2023-04-24T06:07:05;99577.41;;;17.72;29.85
42603;BME280;28233;55.748;48.752;2023-04-24T06:09:08;99571.53;;;17.78;29.26
42603;BME280;28233;55.748;48.752;2023-04-24T06:11:12;99582.75;;;17.81;29.09
42603;BME280;28233;55.748;48.752;2023-04-24T06:13:17;99573.69;;;17.84;28.86
42603;BME280;28233;55.748;48.752;2023-04-24T06:15:20;99568.63;;;17.90;29.02
42603;BME280;28233;55.748;48.752;2023-04-24T06:17:23;99566.41;;;17.99;28.83
42603;BME280;28233;55.748;48.752;2023-04-24T06:19:26;99569.69;;;18.05;28.55
42603;BME280;28233;55.748;48.752;2023-04-24T06:21:28;99574.56;;;18.11;28.53
42603;BME280;28233;55.748;48.752;2023-04-24T06:23:31;99566.25;;;18.15;28.36
42603;BME280;28233;55.748;48.752;2023-04-24T06:25:35;99571.16;;;18.22;28.23
42603;BME280;28233;55.748;48.752;2023-04-24T06:27:38;99575.97;;;18.25;28.37
42603;BME280;28233;55.748;48.752;2023-04-24T06:29:40;99577.25;;;18.31;28.14
42603;BME280;28233;55.748;48.752;2023-04-24T06:31:44;99572.13;;;18.33;28.12
42603;BME280;28233;55.748;48.752;2023-04-24T06:33:48;99566.31;;;18.42;28.38
42603;BME280;28233;55.748;48.752;2023-04-24T06:35:51;99580.69;;;18.47;28.74
42603;BME280;28233;55.748;48.752;2023-04-24T06:37:54;99580.78;;;18.51;28.46
42603;BME280;28233;55.748;48.752;2023-04-24T06:39:58;99580.81;;;18.54;28.38
42603;BME280;28233;55.748;48.752;2023-04-24T06:42:01;99587.66;;;18.61;28.40
42603;BME280;28233;55.748;48.752;2023-04-24T06:44:03;99578.19;;;18.65;28.06
42603;BME280;28233;55.748;48.752;2023-04-24T06:46:06;99583.44;;;18.70;27.77
42603;BME280;28233;55.748;48.752;2023-04-24T06:48:09;99581.88;;;18.73;27.64
42603;BME280;28233;55.748;48.752;2023-04-24T06:50:12;99589.47;;;18.76;27.81
42603;BME280;28233;55.748;48.752;2023-04-24T06:52:15;99582.03;;;18.80;27.41
42603;BME280;28233;55.748;48.752;2023-04-24T06:54:17;99578.91;;;18.85;27.72
42603;BME280;28233;55.748;48.752;2023-04-24T06:56:20;99587.31;;;18.89;27.53
42603;BME280;28233;55.748;48.752;2023-04-24T06:58:24;99582.66;;;18.96;26.98
42603;BME280;28233;55.748;48.752;2023-04-24T07:00:27;99578.31;;;18.99;26.83
42603;BME280;28233;55.748;48.752;2023-04-24T07:02:32;99578.81;;;19.08;26.98
42603;BME280;28233;55.748;48.752;2023-04-24T07:04:35;99584.50;;;19.15;26.76
42603;BME280;28233;55.748;48.752;2023-04-24T07:06:38;99583.28;;;19.16;26.95
42603;BME280;28233;55.748;48.752;2023-04-24T07:08:41;99583.81;;;19.26;26.92
42603;BME280;28233;55.748;48.752;2023-04-24T07:10:44;99576.28;;;19.26;26.35
42603;BME280;28233;55.748;48.752;2023-04-24T07:12:47;99594.59;;;19.27;26.50
42603;BME280;28233;55.748;48.752;2023-04-24T07:14:50;99599.81;;;19.32;26.39
42603;BME280;28233;55.748;48.752;2023-04-24T07:16:53;99589.09;;;19.34;26.50
42603;BME280;28233;55.748;48.752;2023-04-24T07:18:57;99597.88;;;19.36;26.14
42603;BME280;28233;55.748;48.752;2023-04-24T07:21:00;99590.38;;;19.40;26.05
42603;BME280;28233;55.748;48.752;2023-04-24T07:23:03;99588.41;;;19.44;25.72
42603;BME280;28233;55.748;48.752;2023-04-24T07:25:07;99586.13;;;19.50;26.11
42603;BME280;28233;55.748;48.752;2023-04-24T07:27:10;99588.97;;;19.57;25.49
42603;BME280;28233;55.748;48.752;2023-04-24T07:29:13;99587.03;;;19.61;25.29
42603;BME280;28233;55.748;48.752;2023-04-24T07:31:16;99579.13;;;19.67;25.10
42603;BME280;28233;55.748;48.752;2023-04-24T07:33:19;99588.75;;;19.70;25.36
42603;BME280;28233;55.748;48.752;2023-04-24T07:35:22;99595.97;;;19.74;25.32
42603;BME280;28233;55.748;48.752;2023-04-24T07:37:25;99590.00;;;19.76;24.87
42603;BME280;28233;55.748;48.752;2023-04-24T07:39:27;99583.28;;;19.80;24.79
42603;BME280;28233;55.748;48.752;2023-04-24T07:41:31;99592.53;;;19.92;24.64
42603;BME280;28233;55.748;48.752;2023-04-24T07:43:35;99580.31;;;20.03;25.08
42603;BME280;28233;55.748;48.752;2023-04-24T07:45:37;99583.56;;;20.09;25.17
42603;BME280;28233;55.748;48.752;2023-04-24T07:47:42;99586.78;;;20.11;24.96
42603;BME280;28233;55.748;48.752;2023-04-24T07:49:46;99569.63;;;20.13;24.58
42603;BME280;28233;55.748;48.752;2023-04-24T07:51:49;99574.91;;;20.21;24.91
42603;BME280;28233;55.748;48.752;2023-04-24T07:53:52;99581.31;;;20.29;24.79
42603;BME280;28233;55.748;48.752;2023-04-24T07:55:56;99580.22;;;20.37;25.40
42603;BME280;28233;55.748;48.752;2023-04-24T07:57:59;99580.28;;;20.44;24.96
42603;BME280;28233;55.748;48.752;2023-04-24T08:00:03;99570.28;;;20.43;24.51
42603;BME280;28233;55.748;48.752;2023-04-24T08:02:08;99570.25;;;20.40;24.75
42603;BME280;28233;55.748;48.752;2023-04-24T08:04:12;99565.91;;;20.42;24.62
42603;BME280;28233;55.748;48.752;2023-04-24T08:06:15;99581.50;;;20.51;24.36
42603;BME280;28233;55.748;48.752;2023-04-24T08:08:18;99573.53;;;20.53;24.48
42603;BME280;28233;55.748;48.752;2023-04-24T08:10:22;99571.22;;;20.58;24.31
42603;BME280;28233;55.748;48.752;2023-04-24T08:12:27;99581.25;;;20.66;24.34
42603;BME280;28233;55.748;48.752;2023-04-24T08:14:34;99564.91;;;20.68;23.58
42603;BME280;28233;55.748;48.752;2023-04-24T08:16:41;99562.91;;;20.69;23.83
42603;BME280;28233;55.748;48.752;2023-04-24T08:18:45;99564.50;;;20.66;23.92
42603;BME280;28233;55.748;48.752;2023-04-24T08:20:47;99563.31;;;20.71;24.09
42603;BME280;28233;55.748;48.752;2023-04-24T08:22:50;99577.75;;;20.77;24.02
42603;BME280;28233;55.748;48.752;2023-04-24T08:24:53;99571.75;;;20.78;23.65
42603;BME280;28233;55.748;48.752;2023-04-24T08:26:57;99562.19;;;20.79;23.76
42603;BME280;28233;55.748;48.752;2023-04-24T08:29:06;99563.44;;;20.89;23.86
42603;BME280;28233;55.748;48.752;2023-04-24T08:31:09;99559.06;;;20.95;23.23
42603;BME280;28233;55.748;48.752;2023-04-24T08:33:14;99551.94;;;20.98;23.61
42603;BME280;28233;55.748;48.752;2023-04-24T08:35:21;99563.94;;;21.09;23.72
42603;BME280;28233;55.748;48.752;2023-04-24T08:37:29;99542.41;;;21.09;23.51
42603;BME280;28233;55.748;48.752;2023-04-24T08:39:32;99555.56;;;21.16;23.85
42603;BME280;28233;55.748;48.752;2023-04-24T08:41:36;99561.59;;;21.22;23.62
42603;BME280;28233;55.748;48.752;2023-04-24T08:43:40;99546.44;;;21.19;23.76
42603;BME280;28233;55.748;48.752;2023-04-24T08:45:46;99558.75;;;21.11;23.45
42603;BME280;28233;55.748;48.752;2023-04-24T08:47:50;99555.97;;;21.07;23.30
42603;BME280;28233;55.748;48.752;2023-04-24T08:49:55;99544.41;;;21.13;23.17
42603;BME280;28233;55.748;48.752;2023-04-24T08:51:58;99554.41;;;21.17;22.81
42603;BME280;28233;55.748;48.752;2023-04-24T08:54:02;99555.22;;;21.25;22.86
42603;BME280;28233;55.748;48.752;2023-04-24T08:56:06;99557.25;;;21.35;22.60
42603;BME280;28233;55.748;48.752;2023-04-24T08:58:09;99542.94;;;21.40;22.76
42603;BME280;28233;55.748;48.752;2023-04-24T09:00:12;99541.38;;;21.53;22.44
42603;BME280;28233;55.748;48.752;2023-04-24T09:02:16;99539.00;;;21.59;22.67
42603;BME280;28233;55.748;48.752;2023-04-24T09:04:20;99555.78;;;21.63;22.23
42603;BME280;28233;55.748;48.752;2023-04-24T09:06:25;99543.78;;;21.62;21.89
42603;BME280;28233;55.748;48.752;2023-04-24T09:08:29;99535.41;;;21.69;22.12
42603;BME280;28233;55.748;48.752;2023-04-24T09:10:34;99534.22;;;21.70;22.33
42603;BME280;28233;55.748;48.752;2023-04-24T09:12:37;99535.41;;;21.66;21.97
42603;BME280;28233;55.748;48.752;2023-04-24T09:14:39;99544.59;;;21.70;22.00
42603;BME280;28233;55.748;48.752;2023-04-24T09:16:47;99536.63;;;21.76;22.23
42603;BME280;28233;55.748;48.752;2023-04-24T09:18:50;99544.63;;;21.84;22.12
42603;BME280;28233;55.748;48.752;2023-04-24T09:21:11;99537.84;;;21.85;21.64
42603;BME280;28233;55.748;48.752;2023-04-24T09:23:17;99541.44;;;21.93;22.05
42603;BME280;28233;55.748;48.752;2023-04-24T09:25:20;99535.06;;;21.92;22.38
42603;BME280;28233;55.748;48.752;2023-04-24T09:27:23;99539.84;;;21.88;22.21
42603;BME280;28233;55.748;48.752;2023-04-24T09:29:27;99532.25;;;21.92;22.19
42603;BME280;28233;55.748;48.752;2023-04-24T09:31:31;99533.06;;;22.00;22.24
42603;BME280;28233;55.748;48.752;2023-04-24T09:33:34;99528.66;;;22.06;22.08
42603;BME280;28233;55.748;48.752;2023-04-24T09:35:49;99525.44;;;22.01;22.03
42603;BME280;28233;55.748;48.752;2023-04-24T09:37:53;99519.09;;;22.04;22.13
42603;BME280;28233;55.748;48.752;2023-04-24T09:42:16;99528.25;;;22.01;22.12
42603;BME280;28233;55.748;48.752;2023-04-24T09:44:24;99521.06;;;22.03;21.88
42603;BME280;28233;55.748;48.752;2023-04-24T09:46:30;99511.47;;;22.11;22.08
42603;BME280;28233;55.748;48.752;2023-04-24T09:48:37;99502.28;;;22.14;21.79
42603;BME280;28233;55.748;48.752;2023-04-24T09:50:45;99502.28;;;22.11;21.35
42603;BME280;28233;55.748;48.752;2023-04-24T09:53:18;99510.69;;;22.04;21.93
42603;BME280;28233;55.748;48.752;2023-04-24T09:55:26;99511.47;;;22.01;21.80
42603;BME280;28233;55.748;48.752;2023-04-24T09:57:29;99510.69;;;22.04;21.85
42603;BME280;28233;55.748;48.752;2023-04-24T09:59:31;99511.47;;;22.08;21.68
42603;BME280;28233;55.748;48.752;2023-04-24T10:01:35;99522.25;;;22.13;21.42
42603;BME280;28233;55.748;48.752;2023-04-24T10:03:42;99503.06;;;22.15;21.52
42603;BME280;28233;55.748;48.752;2023-04-24T10:05:46;99508.69;;;22.19;21.11
42603;BME280;28233;55.748;48.752;2023-04-24T10:07:49;99504.72;;;22.23;20.93
42603;BME280;28233;55.748;48.752;2023-04-24T10:09:54;99505.50;;;22.31;21.00
42603;BME280;28233;55.748;48.752;2023-04-24T10:11:58;99499.50;;;22.40;20.84
42603;BME280;28233;55.748;48.752;2023-04-24T10:14:02;99501.47;;;22.43;20.83
42603;BME280;28233;55.748;48.752;2023-04-24T10:16:06;99502.69;;;22.49;20.36
42603;BME280;28233;55.748;48.752;2023-04-24T10:18:10;99500.63;;;22.53;20.47
42603;BME280;28233;55.748;48.752;2023-04-24T10:20:13;99486.63;;;22.64;20.39
42603;BME280;28233;55.748;48.752;2023-04-24T10:22:17;99493.81;;;22.72;20.33
42603;BME280;28233;55.748;48.752;2023-04-24T10:24:20;99493.41;;;22.73;20.16
42603;BME280;28233;55.748;48.752;2023-04-24T10:26:24;99481.78;;;22.78;20.22
42603;BME280;28233;55.748;48.752;2023-04-24T10:28:30;99496.97;;;22.88;19.99
42603;BME280;28233;55.748;48.752;2023-04-24T10:30:34;99477.34;;;22.88;20.42
42603;BME280;28233;55.748;48.752;2023-04-24T10:32:38;99469.72;;;22.96;20.59
42603;BME280;28233;55.748;48.752;2023-04-24T10:34:41;99480.53;;;23.01;20.36
42603;BME280;28233;55.748;48.752;2023-04-24T10:36:50;99481.75;;;23.00;20.20
42603;BME280;28233;55.748;48.752;2023-04-24T10:38:56;99489.72;;;23.02;20.06
42603;BME280;28233;55.748;48.752;2023-04-24T10:41:08;99483.28;;;23.12;20.15
42603;BME280;28233;55.748;48.752;2023-04-24T10:43:16;99487.63;;;23.24;19.98
42603;BME280;28233;55.748;48.752;2023-04-24T10:45:21;99480.78;;;23.28;19.92
42603;BME280;28233;55.748;48.752;2023-04-24T10:47:24;99488.00;;;23.29;20.11
42603;BME280;28233;55.748;48.752;2023-04-24T10:49:29;99478.75;;;23.36;20.07